Time;durP1;ratioP1;P1;durP2;ratioP2;P2;SDS_P1;SDS_P2;PMS_P1;PMS_P2;Temp;Humidity;BMP_temperature;BMP_pressure;BME280_temperature;BME280_humidity;BME280_pressure;Samples;Min_cycle;Max_cycle;Signal;HPM_P1;HPM_P2
2022/12/29 00:01:01;;;;;;;3.88;2.30;;;;;;;18.56;47.48;99884.69;5002933;28;20248;-59
2022/12/29 00:03:26;;;;;;;3.95;1.90;;;;;;;18.55;47.41;99899.16;5002699;28;20038;-59
2022/12/29 00:05:57;;;;;;;3.75;1.70;;;;;;;18.55;47.14;99894.63;5063585;28;20037;-59
2022/12/29 00:08:38;;;;;;;3.95;1.77;;;;;;;18.53;47.39;99877.84;5064413;28;20083;-58
2022/12/29 00:11:08;;;;;;;2.92;1.77;;;;;;;18.53;47.07;99875.16;5064748;28;20047;-59
2022/12/29 00:16:22;;;;;;;2.35;1.52;;;;;;;18.53;47.06;99868.94;4982967;28;20138;-58
2022/12/29 00:18:48;;;;;;;3.00;1.67;;;;;;;18.51;47.17;99869.09;4997939;28;20054;-58
2022/12/29 00:35:10;;;;;;;2.70;1.50;;;;;;;18.49;47.35;99858.53;4983118;28;20175;-59
2022/12/29 00:45:54;;;;;;;2.75;1.88;;;;;;;18.45;47.06;99837.59;4982874;28;20117;-59
2022/12/29 00:49:29;;;;;;;3.95;1.80;;;;;;;18.46;47.12;99839.25;4982980;28;20039;-59
2022/12/29 00:51:05;;;;;;;2.80;1.75;;;;;;;18.46;47.05;99831.16;4983044;28;20114;-57
2022/12/29 00:53:30;;;;;;;2.22;1.50;;;;;;;18.43;47.14;99827.00;5027140;28;20044;-58
2022/12/29 00:55:55;;;;;;;2.60;1.50;;;;;;;18.45;47.25;99829.50;5064263;28;20028;-59
2022/12/29 00:58:20;;;;;;;2.92;1.52;;;;;;;18.44;47.12;99828.69;5046194;28;20040;-59
2022/12/29 01:00:45;;;;;;;2.83;1.80;;;;;;;18.44;47.28;99817.09;5064050;28;20033;-59
2022/12/29 01:03:11;;;;;;;2.45;1.50;;;;;;;18.43;47.00;99807.31;5063541;28;20043;-59
2022/12/29 01:05:36;;;;;;;2.88;1.50;;;;;;;18.43;47.37;99816.22;5064129;28;20029;-59
2022/12/29 01:08:02;;;;;;;2.78;2.15;;;;;;;18.42;47.16;99811.88;5064010;28;20037;-59
2022/12/29 01:10:27;;;;;;;2.90;1.65;;;;;;;18.42;47.27;99809.19;5067223;28;20017;-58
2022/12/29 01:12:52;;;;;;;2.70;1.70;;;;;;;18.42;47.42;99798.41;5067865;28;20035;-56
2022/12/29 01:15:17;;;;;;;3.40;2.00;;;;;;;18.42;46.95;99789.50;5067833;28;20397;-59
2022/12/29 01:17:43;;;;;;;2.40;1.65;;;;;;;18.41;47.23;99795.94;5057045;28;20100;-58
2022/12/29 01:20:09;;;;;;;1.65;1.50;;;;;;;18.41;47.13;99793.25;5048026;28;20033;-59
2022/12/29 01:22:34;;;;;;;1.90;1.40;;;;;;;18.40;47.04;99788.88;5047416;28;20470;-58
2022/12/29 01:24:59;;;;;;;1.70;1.50;;;;;;;18.40;47.29;99775.44;5047882;28;20033;-58
2022/12/29 01:27:25;;;;;;;2.40;1.45;;;;;;;18.38;47.04;99783.69;5064727;28;20033;-57
2022/12/29 01:29:50;;;;;;;2.20;1.45;;;;;;;18.38;46.99;99778.28;5049597;28;20033;-56
2022/12/29 01:32:15;;;;;;;1.98;1.30;;;;;;;18.37;47.00;99781.19;5054016;28;20032;-58
2022/12/29 01:34:40;;;;;;;3.60;1.30;;;;;;;18.37;47.00;99765.88;5067513;28;20102;-58
2022/12/29 01:37:06;;;;;;;2.42;1.40;;;;;;;18.36;47.04;99764.22;5052355;28;20032;-58
2022/12/29 01:39:31;;;;;;;2.35;1.67;;;;;;;18.37;46.97;99767.72;5047332;28;20033;-58
2022/12/29 01:41:56;;;;;;;2.15;1.33;;;;;;;18.37;47.18;99765.03;5047303;28;20118;-58
2022/12/29 01:44:51;;;;;;;2.75;1.42;;;;;;;18.36;47.21;99768.78;5047387;28;20033;-58
2022/12/29 01:47:27;;;;;;;1.83;1.23;;;;;;;18.16;47.11;99728.22;5055312;28;20068;-58
2022/12/29 01:49:54;;;;;;;1.77;1.30;;;;;;;18.34;47.07;99779.69;5067478;28;20029;-56
2022/12/29 01:52:20;;;;;;;3.88;1.60;;;;;;;18.34;47.08;99768.94;5067160;28;20040;-58
2022/12/29 01:54:50;;;;;;;2.58;1.48;;;;;;;18.33;47.07;99764.59;5067223;28;20029;-59
2022/12/29 01:57:20;;;;;;;1.48;1.20;;;;;;;18.33;47.01;99759.22;5049296;28;20032;-59
2022/12/29 01:59:52;;;;;;;1.90;1.40;;;;;;;18.27;47.26;99743.84;5067219;28;20032;-59
2022/12/29 02:02:17;;;;;;;1.90;1.35;;;;;;;18.33;47.07;99753.00;5048770;28;20064;-58
2022/12/29 02:04:47;;;;;;;1.90;1.38;;;;;;;18.33;47.18;99767.28;5066992;28;20374;-57
2022/12/29 02:07:21;;;;;;;1.90;1.20;;;;;;;18.32;47.08;99749.47;5049772;28;20032;-59
2022/12/29 02:09:51;;;;;;;2.45;1.40;;;;;;;18.30;47.23;99751.50;5048907;28;20033;-59
2022/12/29 02:12:17;;;;;;;1.60;1.20;;;;;;;18.31;46.96;99745.13;5048911;28;20086;-59
2022/12/29 02:14:42;;;;;;;1.77;1.35;;;;;;;18.30;47.20;99756.06;5048680;28;20033;-58
2022/12/29 02:17:20;;;;;;;2.20;1.33;;;;;;;18.30;47.05;99750.69;5065252;28;20029;-58
2022/12/29 02:20:23;;;;;;;1.52;1.23;;;;;;;18.31;47.22;99755.03;5065732;28;20069;-59
2022/12/29 02:23:00;;;;;;;1.92;1.30;;;;;;;18.30;47.23;99756.06;5066440;28;20095;-59
2022/12/29 02:25:25;;;;;;;2.75;1.45;;;;;;;18.29;47.18;99775.94;5065675;28;20805;-59
2022/12/29 02:28:00;;;;;;;2.70;1.20;;;;;;;18.27;47.25;99754.59;5057696;28;20025;-58
2022/12/29 02:30:58;;;;;;;1.35;1.00;;;;;;;18.19;47.32;99752.03;5048573;28;20032;-59
2022/12/29 02:33:32;;;;;;;2.17;1.13;;;;;;;18.26;47.24;99771.75;5048117;28;20396;-59
2022/12/29 02:36:12;;;;;;;1.85;1.20;;;;;;;18.26;47.23;99771.75;5066396;28;20979;-58
2022/12/29 02:38:59;;;;;;;1.90;1.30;;;;;;;18.23;47.31;99764.09;5046381;28;20052;-58
2022/12/29 02:41:32;;;;;;;2.50;1.35;;;;;;;18.24;47.21;99766.56;5045222;28;20025;-59
2022/12/29 02:44:12;;;;;;;1.55;1.08;;;;;;;18.24;47.25;99771.97;5028562;28;20457;-59
2022/12/29 02:46:45;;;;;;;2.15;1.35;;;;;;;18.24;47.32;99771.13;5048475;28;20039;-59
2022/12/29 02:49:12;;;;;;;4.85;1.27;;;;;;;18.23;46.98;99764.09;5047950;28;20029;-58
2022/12/29 02:51:46;;;;;;;1.35;1.25;;;;;;;18.23;47.21;99758.72;5066219;28;20096;-58
2022/12/29 02:56:56;;;;;;;1.58;1.02;;;;;;;18.21;47.58;99761.56;5066013;28;20539;-59
2022/12/29 02:59:22;;;;;;;2.38;1.38;;;;;;;18.21;47.11;99761.56;5065932;28;20025;-58
2022/12/29 03:02:47;;;;;;;1.40;1.08;;;;;;;18.21;47.12;99745.44;5048049;28;20088;-58
2022/12/29 03:05:29;;;;;;;1.00;0.95;;;;;;;18.20;47.38;99756.41;5004060;28;20038;-57
2022/12/29 03:08:17;;;;;;;1.80;1.13;;;;;;;18.19;47.13;99744.81;4987752;28;20170;-57
2022/12/29 03:10:53;;;;;;;1.92;1.05;;;;;;;18.19;47.01;99754.72;4987290;28;20430;-56
2022/12/29 03:16:41;;;;;;;1.33;1.17;;;;;;;18.17;47.09;99754.06;5003356;28;20042;-58
2022/12/29 03:19:36;;;;;;;2.10;1.23;;;;;;;18.17;47.21;99748.69;5003092;28;20038;-58
2022/12/29 03:24:52;;;;;;;1.30;1.05;;;;;;;18.16;47.36;99737.09;5003830;28;20041;-57
2022/12/29 03:27:29;;;;;;;1.20;1.10;;;;;;;18.15;47.02;99740.84;4987240;28;20046;-59
2022/12/29 03:29:58;;;;;;;1.27;1.08;;;;;;;18.14;47.03;99733.78;5003284;28;20039;-58
2022/12/29 03:32:45;;;;;;;1.45;1.08;;;;;;;18.15;47.16;99723.88;4985877;28;20038;-59
2022/12/29 03:35:13;;;;;;;1.25;1.08;;;;;;;18.12;47.18;99724.25;4987299;28;20050;-58
2022/12/29 03:37:42;;;;;;;1.23;0.93;;;;;;;18.08;47.26;99723.78;4987154;28;20050;-58
2022/12/29 03:40:08;;;;;;;1.65;1.00;;;;;;;18.13;47.12;99736.66;5039935;28;20058;-59
2022/12/29 03:42:35;;;;;;;1.80;1.15;;;;;;;18.13;47.17;99744.72;5064644;28;20104;-57
2022/12/29 03:45:01;;;;;;;1.10;0.90;;;;;;;18.12;47.23;99741.22;5047057;28;20050;-58
2022/12/29 03:47:26;;;;;;;1.30;1.20;;;;;;;18.13;47.03;99744.72;5064498;28;20085;-57
2022/12/29 03:49:52;;;;;;;1.55;1.10;;;;;;;18.04;47.09;99718.97;5047266;28;20386;-58
2022/12/29 03:52:17;;;;;;;0.98;0.82;;;;;;;18.01;47.21;99709.47;5064927;28;20088;-58
2022/12/29 03:54:43;;;;;;;1.20;0.95;;;;;;;18.10;47.25;99719.06;5065211;28;20036;-58
2022/12/29 03:57:10;;;;;;;0.75;0.73;;;;;;;18.02;47.23;99718.34;5064837;28;20024;-58
2022/12/29 03:59:35;;;;;;;1.08;0.90;;;;;;;18.04;47.61;99722.50;5064913;28;20058;-59
2022/12/29 04:02:00;;;;;;;1.02;0.93;;;;;;;18.09;47.10;99738.06;5064598;28;20033;-57
2022/12/29 04:04:26;;;;;;;1.63;0.90;;;;;;;18.10;47.06;99740.59;5064474;28;20404;-58
2022/12/29 04:06:51;;;;;;;1.40;1.00;;;;;;;18.10;47.03;99732.50;5064664;28;20040;-58
2022/12/29 04:09:16;;;;;;;1.40;0.90;;;;;;;18.09;47.16;99735.38;5064784;28;20068;-58
2022/12/29 04:11:41;;;;;;;1.10;0.85;;;;;;;18.10;47.21;99729.00;5047971;28;20033;-56
2022/12/29 04:14:07;;;;;;;1.70;1.15;;;;;;;18.09;47.16;99735.38;5044710;28;20033;-59
2022/12/29 04:16:35;;;;;;;1.50;0.93;;;;;;;18.08;47.08;99739.91;5044070;28;20039;-59
2022/12/29 04:19:01;;;;;;;1.15;0.88;;;;;;;18.08;46.94;99745.31;5044092;28;20045;-59
2022/12/29 04:21:26;;;;;;;1.35;1.08;;;;;;;18.07;47.16;99740.97;5044477;28;20029;-58
2022/12/29 04:23:51;;;;;;;1.02;0.93;;;;;;;18.06;47.03;99744.69;5044506;28;20090;-59
2022/12/29 04:26:17;;;;;;;1.42;1.13;;;;;;;18.05;46.98;99742.16;5052386;28;20029;-59
2022/12/29 04:28:42;;;;;;;1.17;0.80;;;;;;;18.07;47.00;99750.88;5058499;28;20021;-59
2022/12/29 04:31:07;;;;;;;1.10;1.00;;;;;;;18.06;47.07;99752.75;5044325;28;20509;-59
2022/12/29 04:33:32;;;;;;;1.45;1.00;;;;;;;18.07;46.94;99756.25;5044152;28;20032;-57
2022/12/29 04:35:58;;;;;;;1.30;1.08;;;;;;;18.07;47.27;99748.19;5033838;28;20041;-59
2022/12/29 04:38:24;;;;;;;0.75;0.75;;;;;;;18.06;47.05;99744.69;5062674;28;20051;-58
2022/12/29 04:40:49;;;;;;;1.00;0.90;;;;;;;18.06;47.18;99746.53;5064034;28;20108;-58
2022/12/29 04:43:15;;;;;;;1.38;0.98;;;;;;;18.05;46.97;99744.84;5063972;28;20032;-58
2022/12/29 04:45:47;;;;;;;1.60;1.00;;;;;;;18.05;47.04;99763.66;5063691;28;20115;-59
2022/12/29 04:48:12;;;;;;;1.13;1.02;;;;;;;18.04;47.11;99757.47;5063691;28;20066;-59
2022/12/29 04:50:38;;;;;;;2.17;1.00;;;;;;;17.98;47.20;99742.09;5064094;28;20424;-59
2022/12/29 04:53:04;;;;;;;1.63;1.00;;;;;;;18.03;47.13;99755.81;5064057;28;20033;-58
2022/12/29 04:55:29;;;;;;;1.55;0.88;;;;;;;18.02;47.00;99756.00;5064285;28;20086;-57
2022/12/29 04:57:55;;;;;;;0.90;0.90;;;;;;;17.98;47.07;99756.38;5058742;28;20037;-59
2022/12/29 05:00:20;;;;;;;1.20;1.10;;;;;;;18.02;47.26;99759.53;5052891;28;20025;-58
2022/12/29 05:02:45;;;;;;;0.98;0.80;;;;;;;18.02;47.25;99761.38;5043547;28;20091;-56
2022/12/29 05:05:11;;;;;;;1.35;0.90;;;;;;;18.03;47.19;99771.13;5046948;28;20042;-58
2022/12/29 05:07:36;;;;;;;0.88;0.85;;;;;;;18.03;47.20;99763.03;5063716;28;20041;-57
2022/12/29 05:10:02;;;;;;;1.05;0.93;;;;;;;18.02;47.18;99764.06;5063812;28;20032;-57
2022/12/29 05:12:31;;;;;;;1.05;0.90;;;;;;;18.02;47.33;99758.69;5063951;28;20041;-58
2022/12/29 05:14:56;;;;;;;1.55;1.08;;;;;;;18.01;47.18;99767.75;5063503;28;20166;-56
2022/12/29 05:17:21;;;;;;;1.33;0.90;;;;;;;18.02;47.16;99758.69;5063550;28;20461;-54
2022/12/29 05:19:47;;;;;;;0.77;0.77;;;;;;;18.00;47.41;99772.31;5063540;28;20037;-57
2022/12/29 05:22:12;;;;;;;1.88;1.10;;;;;;;18.02;47.26;99777.53;5063814;28;20049;-57
2022/12/29 05:24:37;;;;;;;2.00;0.70;;;;;;;18.02;47.33;99758.69;5064058;28;20040;-56
2022/12/29 05:27:03;;;;;;;1.23;0.90;;;;;;;17.90;47.32;99737.69;5049282;28;20021;-57
2022/12/29 05:29:28;;;;;;;1.92;0.90;;;;;;;18.02;47.29;99762.22;5055788;28;20025;-55
2022/12/29 05:31:53;;;;;;;1.17;0.95;;;;;;;18.03;47.07;99752.28;5063286;28;20083;-56
2022/12/29 05:34:18;;;;;;;1.30;0.90;;;;;;;18.03;47.24;99766.56;5063000;28;20025;-57
2022/12/29 05:36:44;;;;;;;1.45;0.90;;;;;;;18.01;47.24;99765.06;5049429;28;20036;-58
2022/12/29 05:39:09;;;;;;;1.35;1.20;;;;;;;18.01;47.19;99771.31;5062729;28;20052;-59
2022/12/29 05:41:35;;;;;;;2.60;1.33;;;;;;;18.01;47.19;99770.44;5051698;28;20025;-59
2022/12/29 05:44:00;;;;;;;2.58;0.95;;;;;;;18.06;47.27;99790.41;5059822;28;20029;-59
2022/12/29 05:46:25;;;;;;;1.58;1.00;;;;;;;18.04;47.29;99773.59;5061945;28;20486;-58
2022/12/29 05:48:51;;;;;;;1.00;0.90;;;;;;;18.04;47.57;99775.47;5056697;28;20022;-58
2022/12/29 05:51:16;;;;;;;0.88;0.80;;;;;;;18.09;47.45;99797.25;5056249;28;20055;-59
2022/12/29 05:53:41;;;;;;;2.15;1.13;;;;;;;18.11;47.38;99797.91;5053802;28;20029;-59
2022/12/29 05:56:07;;;;;;;0.88;0.80;;;;;;;18.11;47.72;99798.72;5056033;28;20033;-58
2022/12/29 05:58:32;;;;;;;2.05;0.80;;;;;;;18.11;47.51;99801.41;5057311;28;20037;-58
2022/12/29 06:00:57;;;;;;;1.90;0.80;;;;;;;18.10;47.58;99807.81;5055322;28;20081;-58
2022/12/29 06:03:23;;;;;;;4.28;1.38;;;;;;;18.13;47.67;99812.81;5056620;28;20021;-58
2022/12/29 06:05:48;;;;;;;2.85;1.10;;;;;;;18.13;47.59;99820.88;5056337;28;20040;-58
2022/12/29 06:08:14;;;;;;;2.00;1.20;;;;;;;18.11;47.70;99814.03;5056592;28;20148;-58
2022/12/29 06:10:39;;;;;;;2.10;1.20;;;;;;;18.12;47.67;99819.22;5057010;28;20037;-58
2022/12/29 06:13:07;;;;;;;2.55;1.10;;;;;;;18.14;47.51;99827.94;5056565;28;20076;-56
2022/12/29 06:15:33;;;;;;;1.20;1.10;;;;;;;18.13;47.60;99817.34;5060337;28;20033;-57
2022/12/29 06:17:58;;;;;;;1.90;0.98;;;;;;;18.15;47.72;99826.91;5054784;28;20033;-58
2022/12/29 06:20:24;;;;;;;5.63;1.30;;;;;;;18.16;47.77;99819.69;5058660;28;20045;-58
2022/12/29 06:22:49;;;;;;;2.00;1.10;;;;;;;18.17;47.67;99821.34;5055120;28;20037;-59
2022/12/29 06:25:15;;;;;;;1.65;1.20;;;;;;;18.12;47.72;99816.53;5055738;28;20021;-59
2022/12/29 06:27:41;;;;;;;1.88;1.20;;;;;;;18.19;47.39;99830.06;5054112;28;20025;-58
2022/12/29 06:30:07;;;;;;;3.17;1.58;;;;;;;18.18;47.46;99831.94;5053777;28;20488;-59
2022/12/29 06:32:32;;;;;;;2.17;1.17;;;;;;;18.16;47.47;99828.56;5062235;28;20070;-57
2022/12/29 06:34:57;;;;;;;2.75;1.42;;;;;;;18.15;47.74;99835.00;5057422;28;20116;-57
2022/12/29 06:37:22;;;;;;;2.80;0.98;;;;;;;18.20;47.71;99846.00;5053669;28;20036;-59
2022/12/29 06:39:48;;;;;;;1.80;1.00;;;;;;;18.21;47.53;99849.53;5055452;28;20056;-58
2022/12/29 06:42:13;;;;;;;3.47;0.90;;;;;;;18.22;47.38;99843.97;5062436;28;20041;-59
2022/12/29 06:44:38;;;;;;;2.15;1.00;;;;;;;18.20;47.60;99839.78;5055336;28;20036;-59
2022/12/29 06:47:03;;;;;;;2.63;1.25;;;;;;;18.23;47.41;99847.50;5055467;28;20049;-59
2022/12/29 06:49:29;;;;;;;3.53;1.33;;;;;;;18.23;47.51;99851.00;5053586;28;20037;-56
2022/12/29 06:51:54;;;;;;;2.78;1.30;;;;;;;18.24;47.84;99841.09;5051150;28;20033;-58
2022/12/29 06:54:19;;;;;;;1.50;1.02;;;;;;;18.23;47.54;99845.63;5050249;28;20040;-58
2022/12/29 06:56:44;;;;;;;2.85;1.25;;;;;;;18.24;47.70;99862.59;5060822;28;20029;-58
2022/12/29 06:59:10;;;;;;;1.90;1.20;;;;;;;18.23;47.52;99858.25;5055247;28;20014;-59
2022/12/29 07:01:35;;;;;;;3.03;1.30;;;;;;;18.24;47.84;99862.59;5065281;28;20497;-59
2022/12/29 07:04:01;;;;;;;4.75;1.20;;;;;;;18.18;47.88;99850.75;5061720;28;20033;-59
2022/12/29 07:06:27;;;;;;;2.63;1.10;;;;;;;18.27;47.54;99858.72;5064005;28;20041;-59
2022/12/29 07:08:54;;;;;;;1.63;1.08;;;;;;;18.26;47.87;99862.41;5065450;28;20054;-59
2022/12/29 07:11:20;;;;;;;2.95;1.50;;;;;;;18.28;47.78;99868.44;5065624;28;20057;-59
2022/12/29 07:13:45;;;;;;;2.13;1.20;;;;;;;18.27;47.69;99873.00;5064797;28;20086;-59
2022/12/29 07:16:11;;;;;;;1.95;1.13;;;;;;;18.28;47.64;99869.28;5065063;28;20028;-59
2022/12/29 07:18:36;;;;;;;1.83;0.82;;;;;;;18.28;47.66;99880.03;5064807;28;20044;-59
2022/12/29 07:21:02;;;;;;;1.20;0.95;;;;;;;18.20;47.51;99859.47;5065485;28;20576;-58
2022/12/29 07:23:27;;;;;;;2.38;1.00;;;;;;;18.29;47.64;99878.19;5064723;28;20040;-58
2022/12/29 07:26:04;;;;;;;1.92;1.20;;;;;;;18.28;47.84;99880.03;5060518;28;20079;-59
2022/12/29 07:28:29;;;;;;;3.33;1.10;;;;;;;18.24;47.85;99868.00;5045563;28;20033;-57
2022/12/29 07:30:54;;;;;;;3.00;1.20;;;;;;;18.26;47.90;99862.41;5065112;28;20534;-59
2022/12/29 07:33:20;;;;;;;2.60;1.00;;;;;;;18.29;47.88;99862.88;5064516;28;20049;-59
2022/12/29 07:35:45;;;;;;;2.58;1.25;;;;;;;18.29;47.73;99875.50;5064965;28;20748;-55
2022/12/29 07:38:10;;;;;;;3.85;1.42;;;;;;;18.30;47.49;99883.38;5047923;28;20041;-58
2022/12/29 07:40:36;;;;;;;1.20;0.90;;;;;;;18.33;47.38;99885.69;5044917;28;20029;-53
2022/12/29 07:43:01;;;;;;;1.48;1.10;;;;;;;18.34;47.30;99895.41;5045114;28;20624;-56
2022/12/29 07:45:26;;;;;;;2.90;1.20;;;;;;;18.35;47.29;99917.78;5044629;28;20045;-54
2022/12/29 07:47:52;;;;;;;2.25;1.05;;;;;;;18.34;47.17;99916.13;5044335;28;20030;-56
2022/12/29 07:50:17;;;;;;;1.90;0.85;;;;;;;18.33;47.29;99896.44;5044818;28;20057;-56
2022/12/29 07:52:42;;;;;;;2.35;1.15;;;;;;;18.35;47.39;99883.66;5044673;28;20029;-55
2022/12/29 07:55:08;;;;;;;2.42;1.33;;;;;;;18.36;47.05;99898.75;5044860;28;20029;-57
2022/12/29 07:57:34;;;;;;;4.13;1.10;;;;;;;18.37;47.28;99886.97;5044333;28;20049;-54
2022/12/29 07:59:59;;;;;;;3.05;1.17;;;;;;;18.38;46.93;99910.16;5044402;28;20025;-57
2022/12/29 08:02:26;;;;;;;3.72;1.10;;;;;;;18.38;47.11;99909.34;5045451;28;20159;-53
2022/12/29 08:04:51;;;;;;;1.90;1.08;;;;;;;18.36;46.92;99912.22;5056228;28;20089;-56
2022/12/29 08:07:16;;;;;;;3.47;1.17;;;;;;;18.38;46.79;99904.78;5055663;28;20095;-57
2022/12/29 08:09:41;;;;;;;2.88;1.10;;;;;;;18.38;46.98;99909.34;5044433;28;20026;-57
2022/12/29 08:12:09;;;;;;;1.98;1.00;;;;;;;18.41;46.75;99909.78;5044676;28;20035;-55
2022/12/29 08:14:34;;;;;;;2.03;0.90;;;;;;;18.42;46.69;99907.94;5026912;28;20393;-56
2022/12/29 08:17:00;;;;;;;2.78;1.10;;;;;;;18.41;46.58;99906.28;5044370;28;20033;-55
2022/12/29 08:19:25;;;;;;;2.30;1.05;;;;;;;18.45;46.90;99900.31;5043031;28;20104;-57
2022/12/29 08:21:51;;;;;;;1.83;0.98;;;;;;;18.45;46.59;99911.09;5044811;28;20037;-56
2022/12/29 08:24:16;;;;;;;2.72;0.85;;;;;;;18.46;46.77;99911.91;5044347;28;20438;-57
2022/12/29 08:26:41;;;;;;;2.42;1.00;;;;;;;18.46;46.59;99907.34;5055707;28;20045;-57
2022/12/29 08:29:06;;;;;;;2.88;1.33;;;;;;;18.44;46.49;99895.97;5063949;28;20737;-55
2022/12/29 08:31:32;;;;;;;2.28;1.10;;;;;;;18.46;46.55;99911.91;5063987;28;20029;-57
2022/12/29 08:33:57;;;;;;;1.98;1.10;;;;;;;18.43;46.65;99891.59;5063615;28;20481;-57
2022/12/29 08:36:22;;;;;;;2.83;1.20;;;;;;;18.50;46.77;99907.81;5063928;28;20032;-57
2022/12/29 08:38:48;;;;;;;3.17;1.38;;;;;;;18.51;46.36;99904.09;5063740;28;20024;-57
2022/12/29 08:41:13;;;;;;;2.42;1.23;;;;;;;18.51;46.33;99898.72;5063858;28;20041;-58
2022/12/29 08:43:38;;;;;;;2.75;0.80;;;;;;;18.49;46.30;99893.53;5064064;28;20082;-58
2022/12/29 08:46:03;;;;;;;3.67;1.10;;;;;;;18.52;46.32;99896.84;5063558;28;20024;-56
2022/12/29 08:48:29;;;;;;;2.17;1.15;;;;;;;18.52;46.26;99892.31;5063151;28;20468;-58
2022/12/29 08:50:54;;;;;;;2.58;0.93;;;;;;;18.54;46.35;99897.50;5063542;28;20028;-56
2022/12/29 08:53:19;;;;;;;3.05;1.23;;;;;;;18.54;46.34;99898.34;5063786;28;20033;-57
2022/12/29 08:55:46;;;;;;;4.00;1.02;;;;;;;18.54;46.23;99897.50;5064030;28;20027;-55
2022/12/29 08:58:14;;;;;;;3.08;1.30;;;;;;;18.55;46.33;99894.63;5063824;28;20051;-58
2022/12/29 09:00:40;;;;;;;2.60;1.08;;;;;;;18.56;46.52;99901.66;5063850;28;20028;-58
2022/12/29 09:03:05;;;;;;;3.25;0.90;;;;;;;18.57;46.49;99903.34;5063586;28;20082;-58
2022/12/29 09:05:31;;;;;;;2.08;1.17;;;;;;;18.58;46.03;99904.19;5063872;28;20060;-57
2022/12/29 09:07:56;;;;;;;5.45;2.42;;;;;;;18.55;46.34;99901.84;5063621;28;20043;-57
2022/12/29 09:10:21;;;;;;;2.10;0.98;;;;;;;18.61;46.13;99906.50;5063660;28;20068;-57
2022/12/29 09:12:46;;;;;;;2.63;1.02;;;;;;;18.62;46.24;99902.78;5063897;28;20029;-58
2022/12/29 09:15:12;;;;;;;2.25;1.17;;;;;;;18.55;46.11;99897.31;5063294;28;20040;-54
2022/12/29 09:17:40;;;;;;;3.03;1.02;;;;;;;18.61;46.07;99893.88;5063224;28;20106;-54
2022/12/29 09:20:06;;;;;;;3.03;1.00;;;;;;;18.62;45.91;99902.78;5063005;28;20056;-56
2022/12/29 09:22:31;;;;;;;2.88;0.90;;;;;;;18.66;46.14;99912.97;5063419;28;20135;-57
2022/12/29 09:24:56;;;;;;;1.52;0.80;;;;;;;18.66;45.94;99917.53;5063733;28;20063;-56
2022/12/29 09:27:22;;;;;;;2.20;0.90;;;;;;;18.67;45.84;99916.50;5046368;28;20033;-56
2022/12/29 09:29:47;;;;;;;1.73;0.80;;;;;;;18.63;46.11;99920.59;5055604;28;20113;-58
2022/12/29 09:32:12;;;;;;;2.75;1.10;;;;;;;18.66;46.04;99918.34;5067367;28;20033;-55
2022/12/29 09:34:37;;;;;;;2.10;1.02;;;;;;;18.67;45.83;99921.88;5066737;28;20028;-57
2022/12/29 09:37:03;;;;;;;2.38;0.88;;;;;;;18.67;45.80;99930.78;5067347;28;20029;-56
2022/12/29 09:39:28;;;;;;;3.03;0.90;;;;;;;18.64;46.01;99920.38;5067200;28;20107;-56
2022/12/29 09:42:16;;;;;;;2.78;1.23;;;;;;;18.69;45.93;99926.09;5067171;28;20056;-57
2022/12/29 09:45:14;;;;;;;1.73;1.13;;;;;;;18.70;45.87;99943.06;5066209;28;20571;-56
2022/12/29 09:47:41;;;;;;;1.75;1.00;;;;;;;18.69;45.72;99942.25;5043030;28;20033;-52
2022/12/29 09:50:20;;;;;;;2.83;1.23;;;;;;;18.70;45.99;99940.38;5048651;28;20036;-55
2022/12/29 09:53:21;;;;;;;1.33;0.85;;;;;;;18.61;45.54;99928.03;5044252;28;20029;-53
2022/12/29 09:55:52;;;;;;;2.55;1.10;;;;;;;18.72;45.47;99951.78;5046017;28;20025;-52
2022/12/29 09:58:21;;;;;;;1.92;1.05;;;;;;;18.72;45.46;99952.63;5047102;28;20092;-55
2022/12/29 10:00:52;;;;;;;3.13;1.23;;;;;;;18.74;45.81;99963.22;5028634;28;20032;-56
2022/12/29 10:03:20;;;;;;;2.70;1.02;;;;;;;18.72;45.86;99966.06;5046115;28;20052;-56
2022/12/29 10:06:03;;;;;;;3.83;1.55;;;;;;;18.64;45.64;99963.47;5046918;28;20061;-56
2022/12/29 10:08:39;;;;;;;3.60;1.50;;;;;;;18.69;45.97;99965.59;5028806;28;20056;-57
2022/12/29 10:11:42;;;;;;;1.95;1.10;;;;;;;18.73;45.85;99985.75;5029074;28;20126;-56
2022/12/29 10:14:16;;;;;;;3.08;1.23;;;;;;;18.72;45.60;99979.53;5046622;28;20029;-57
2022/12/29 10:16:58;;;;;;;2.60;1.00;;;;;;;18.69;45.55;99974.56;5046457;28;20077;-57
2022/12/29 10:19:28;;;;;;;2.65;1.00;;;;;;;18.72;45.71;99979.53;5048159;28;20057;-55
2022/12/29 10:22:17;;;;;;;4.30;1.23;;;;;;;18.73;45.85;99975.84;5048278;28;20104;-56
2022/12/29 10:24:45;;;;;;;2.95;1.30;;;;;;;18.74;45.53;99979.38;5048790;28;20021;-55
2022/12/29 10:27:12;;;;;;;3.80;1.02;;;;;;;18.45;45.63;99946.06;5032842;28;20030;-57
2022/12/29 10:29:41;;;;;;;3.05;1.20;;;;;;;18.76;45.59;99989.94;5037848;28;20036;-56
2022/12/29 10:32:12;;;;;;;2.72;1.52;;;;;;;18.75;45.50;99989.09;5065963;28;20017;-58
2022/12/29 10:34:41;;;;;;;2.17;1.00;;;;;;;18.76;45.43;99993.47;5048098;28;20056;-54
2022/12/29 10:37:25;;;;;;;;;;;;;;;18.78;45.57;99998.69;5065973;28;20088;-57
2022/12/29 10:39:52;;;;;;;2.97;1.20;;;;;;;18.79;45.36;100006.56;5065561;28;20356;-58
2022/12/29 10:42:33;;;;;;;2.63;1.30;;;;;;;18.80;45.49;100008.22;5065310;28;20025;-57
2022/12/29 10:44:59;;;;;;;2.85;1.08;;;;;;;18.76;45.42;100006.94;5065576;28;20017;-57
2022/12/29 10:47:28;;;;;;;4.50;1.25;;;;;;;18.80;45.74;100016.28;5065283;28;20092;-57
2022/12/29 10:49:53;;;;;;;3.22;1.55;;;;;;;18.81;45.51;100003.66;5064816;28;20025;-54
2022/12/29 10:52:19;;;;;;;4.10;1.33;;;;;;;18.82;45.74;100018.78;5065501;28;20051;-51
2022/12/29 10:54:55;;;;;;;2.92;1.02;;;;;;;18.80;45.79;100012.78;5065684;28;20033;-57
2022/12/29 10:57:24;;;;;;;3.88;1.10;;;;;;;18.81;45.74;100026.03;5028193;28;20118;-57
2022/12/29 10:59:49;;;;;;;3.22;1.20;;;;;;;18.81;45.72;100028.72;5045671;28;20029;-57
2022/12/29 11:02:20;;;;;;;2.65;1.08;;;;;;;18.84;45.81;100030.22;5045220;28;20029;-55
2022/12/29 11:05:07;;;;;;;2.55;1.25;;;;;;;18.83;45.58;100048.25;5027605;28;20033;-57
2022/12/29 11:07:32;;;;;;;3.95;1.67;;;;;;;18.84;45.55;100052.59;5045335;28;20036;-58
2022/12/29 11:10:17;;;;;;;5.70;1.75;;;;;;;18.85;45.81;100064.22;5045640;28;20052;-58
2022/12/29 11:12:59;;;;;;;4.97;1.80;;;;;;;18.85;45.92;100072.28;5045447;28;20060;-58
2022/12/29 11:15:24;;;;;;;6.22;2.20;;;;;;;18.85;46.03;100069.59;5045121;28;20026;-56
2022/12/29 11:17:52;;;;;;;9.48;2.58;;;;;;;18.85;46.12;100072.28;5044709;28;20040;-55
2022/12/29 11:20:30;;;;;;;7.07;2.53;;;;;;;18.87;45.97;100071.09;5054789;28;20052;-58
2022/12/29 11:22:55;;;;;;;7.97;2.40;;;;;;;18.89;45.89;100070.88;5064830;28;20029;-57
2022/12/29 11:25:20;;;;;;;7.18;2.22;;;;;;;18.90;45.88;100068.03;5064768;28;20086;-58
2022/12/29 11:28:15;;;;;;;5.10;1.98;;;;;;;18.90;45.87;100075.25;5027512;28;20034;-57
2022/12/29 11:30:41;;;;;;;6.97;2.53;;;;;;;18.90;45.72;100083.31;5028131;28;20068;-58
2022/12/29 11:33:08;;;;;;;6.45;2.58;;;;;;;18.90;45.97;100084.19;5061729;28;20032;-54
2022/12/29 11:35:40;;;;;;;4.43;1.88;;;;;;;18.91;45.95;100091.22;5060808;28;20021;-56
2022/12/29 11:38:06;;;;;;;3.45;2.10;;;;;;;18.86;45.79;100082.88;5060868;28;20071;-58
2022/12/29 11:40:33;;;;;;;5.80;2.50;;;;;;;18.82;46.01;100075.34;5064932;28;20025;-57
2022/12/29 11:43:02;;;;;;;4.20;1.88;;;;;;;18.88;45.80;100093.47;5063876;28;20052;-57
2022/12/29 11:45:34;;;;;;;5.50;2.17;;;;;;;18.92;46.00;100105.53;5061108;28;20034;-57
2022/12/29 11:48:07;;;;;;;6.00;1.85;;;;;;;18.93;46.07;100110.72;5046390;28;20029;-58
2022/12/29 11:50:34;;;;;;;4.47;1.88;;;;;;;18.94;46.01;100120.47;5065226;28;20025;-59
2022/12/29 11:53:01;;;;;;;4.78;1.88;;;;;;;18.96;46.14;100131.06;5031167;28;20032;-57
2022/12/29 11:55:28;;;;;;;6.35;2.55;;;;;;;18.96;46.22;100120.28;5043757;28;20036;-57
2022/12/29 11:57:55;;;;;;;3.13;1.85;;;;;;;18.96;46.10;100142.69;5055193;28;20473;-58
2022/12/29 12:00:25;;;;;;;4.22;1.83;;;;;;;18.98;46.31;100146.00;5046857;28;20025;-57
2022/12/29 12:02:56;;;;;;;5.70;2.47;;;;;;;18.96;46.24;100142.69;5046238;28;20029;-57
2022/12/29 12:05:26;;;;;;;3.85;1.77;;;;;;;18.97;46.67;100148.91;5064794;28;20025;-58
2022/12/29 12:08:21;;;;;;;4.80;2.10;;;;;;;18.98;46.48;100147.88;5064253;28;20021;-56
2022/12/29 12:11:20;;;;;;;6.00;2.30;;;;;;;18.99;46.77;100157.66;5002317;28;20061;-57
2022/12/29 12:14:02;;;;;;;5.10;2.20;;;;;;;18.98;46.74;100161.34;4985661;28;20027;-58